Disclaimer

Please do not use the information listed here in-flight or in-navigation, as they are not provided to us by the airports but are provided by volunteers, so they might be outdated.

Search


Regions


Airport information page

Radio informations:
Automatic Terminal Information Service (ATIS) - 115.6 MHz

Airport informations:
Latitude: 36° 04' 04.00" S
Longitude: 146° 57' 29.00" E
Elevation: 539 feet - 164 meters
Operating hours: N/A
Operating agency: Civil government, landing fees and diplomatic clearance may be required
Timezone: UTC+10(+11DT)
Fuel: Jet A1, without icing nhibitor.

100/130 MIL Spec, low lead, aviation gasoline (BLUE)

Runway information:
07/25 - 6234 x 98 feet< - >1900 x 30 meters

Recent METARs:
YMAY 142000Z AUTO 22004KT 9999 // BKN008 BKN015 14/14 Q1017
YMAY 142013Z AUTO 21005KT 9999 // SCT008 15/14 Q1017
YMAY 142104Z AUTO 24001KT 9999 // BKN011 16/14 Q1018

Airport on the map: